Time;durP1;ratioP1;P1;durP2;ratioP2;P2;SDS_P1;SDS_P2;PMS_P1;PMS_P2;Temp;Humidity;BMP_temperature;BMP_pressure;BME280_temperature;BME280_humidity;BME280_pressure;Samples;Min_cycle;Max_cycle;Signal;HPM_P1;HPM_P2
2021/08/22 00:05:07;;;;;;;0.55;0.55;;;23.40;99.90;;;;;;20782859;28;20198;-80
2021/08/22 00:15:12;;;;;;;2.42;1.08;;;23.30;99.90;;;;;;20781123;28;20721;-80
2021/08/22 00:25:17;;;;;;;2.77;0.97;;;23.10;99.90;;;;;;20762758;28;20302;-80
2021/08/22 00:35:21;;;;;;;0.85;0.85;;;23.00;99.90;;;;;;20759826;28;20687;-76
2021/08/22 00:45:27;;;;;;;0.93;0.30;;;23.10;99.90;;;;;;20779550;28;20244;-79
2021/08/22 00:55:30;;;;;;;0.80;0.80;;;23.00;99.90;;;;;;20775801;28;20237;-78
2021/08/22 01:05:42;;;;;;;0.40;0.40;;;22.90;99.90;;;;;;20777415;28;20810;-78
2021/08/22 01:15:50;;;;;;;1.57;0.83;;;22.60;99.90;;;;;;20757152;28;20715;-80
2021/08/22 01:25:57;;;;;;;1.80;0.57;;;22.70;99.90;;;;;;20777325;28;20297;-78
2021/08/22 01:36:02;;;;;;;1.60;0.85;;;22.60;99.90;;;;;;20774772;28;20420;-79
2021/08/22 01:46:07;;;;;;;1.67;1.30;;;22.50;99.90;;;;;;20774067;28;20558;-76
2021/08/22 01:56:12;;;;;;;0.33;0.17;;;22.50;99.90;;;;;;20758690;28;20500;-77
2021/08/22 02:06:21;;;;;;;0.30;0.30;;;22.40;99.90;;;;;;20773649;28;20376;-78
2021/08/22 02:16:29;;;;;;;0.90;0.90;;;22.30;99.90;;;;;;20772904;28;20243;-79
2021/08/22 02:26:34;;;;;;;0.60;0.60;;;22.30;99.90;;;;;;20772160;28;20581;-78
2021/08/22 02:36:39;;;;;;;0.67;0.60;;;22.30;99.90;;;;;;20786430;28;20230;-78
2021/08/22 02:46:43;;;;;;;2.83;1.47;;;22.30;99.90;;;;;;20788124;28;20202;-80
2021/08/22 02:56:48;;;;;;;0.20;0.17;;;22.40;99.90;;;;;;20787234;28;20224;-79
2021/08/22 03:06:51;;;;;;;1.10;0.37;;;22.30;99.90;;;;;;20707111;28;20767;-79
2021/08/22 03:16:56;;;;;;;1.23;0.67;;;22.40;99.90;;;;;;20703251;28;21071;-78
2021/08/22 03:27:00;;;;;;;0.35;0.28;;;22.50;99.90;;;;;;20708327;28;20248;-78
2021/08/22 03:37:05;;;;;;;0.20;0.10;;;22.50;99.90;;;;;;20782854;28;20221;-78
2021/08/22 03:47:10;;;;;;;2.43;0.77;;;22.60;99.90;;;;;;20784207;28;20281;-80
2021/08/22 03:57:14;;;;;;;0.88;0.88;;;22.50;99.90;;;;;;20765264;28;20312;-79
2021/08/22 04:07:18;;;;;;;0.27;0.20;;;22.40;99.90;;;;;;20783314;28;20696;-79
2021/08/22 04:17:23;;;;;;;0.65;0.45;;;22.30;99.90;;;;;;20779999;28;20233;-78
2021/08/22 04:27:26;;;;;;;3.00;0.90;;;22.40;99.90;;;;;;20778183;28;20671;-80
2021/08/22 04:37:32;;;;;;;2.70;0.57;;;22.30;99.90;;;;;;20779177;28;20312;-78
2021/08/22 04:47:35;;;;;;;2.87;0.67;;;22.40;99.90;;;;;;20779162;28;20221;-79
2021/08/22 04:57:40;;;;;;;1.33;0.70;;;22.40;99.90;;;;;;20773772;28;20230;-79
2021/08/22 05:07:44;;;;;;;0.23;0.13;;;22.40;99.90;;;;;;20696771;28;20195;-79
2021/08/22 05:17:49;;;;;;;2.33;0.47;;;22.30;99.90;;;;;;20696214;28;20893;-78
2021/08/22 05:27:53;;;;;;;0.87;0.87;;;22.40;99.90;;;;;;20705263;28;20238;-78
2021/08/22 05:37:58;;;;;;;1.40;1.30;;;22.50;99.90;;;;;;20777778;28;20580;-81
2021/08/22 05:48:02;;;;;;;0.80;0.80;;;22.60;99.90;;;;;;20775767;28;20194;-80
2021/08/22 05:58:07;;;;;;;2.95;1.25;;;22.80;99.90;;;;;;20770505;28;20237;-80
2021/08/22 06:08:11;;;;;;;0.25;0.25;;;23.00;99.90;;;;;;20792375;28;20221;-80
2021/08/22 06:18:18;;;;;;;0.50;0.50;;;23.30;99.90;;;;;;20792291;28;21013;-82
2021/08/22 06:28:21;;;;;;;1.67;1.05;;;23.60;99.90;;;;;;20790263;28;20360;-81
2021/08/22 06:38:26;;;;;;;4.45;1.08;;;23.90;99.90;;;;;;20791613;28;20225;-80
2021/08/22 06:48:30;;;;;;;1.90;0.95;;;24.20;99.90;;;;;;20761233;28;20200;-83
2021/08/22 06:58:35;;;;;;;6.28;2.22;;;24.70;99.90;;;;;;20774291;28;20230;-82
2021/08/22 07:08:38;;;;;;;0.93;0.90;;;25.00;99.90;;;;;;20704909;28;20648;-84
2021/08/22 07:18:43;;;;;;;0.50;0.50;;;25.40;99.90;;;;;;20704954;28;20231;-82
2021/08/22 07:28:47;;;;;;;0.82;0.75;;;25.60;99.90;;;;;;20722062;28;20218;-82
2021/08/22 07:38:52;;;;;;;1.30;0.82;;;25.60;99.90;;;;;;20784379;28;20232;-83
2021/08/22 07:48:55;;;;;;;2.10;0.90;;;25.70;99.90;;;;;;20768159;28;20353;-81
2021/08/22 07:59:01;;;;;;;1.52;0.77;;;26.10;99.90;;;;;;20783363;28;20226;-81
2021/08/22 08:09:05;;;;;;;2.17;1.63;;;26.40;99.90;;;;;;20784679;28;20252;-83
2021/08/22 08:19:10;;;;;;;3.15;1.00;;;26.50;99.90;;;;;;20782966;28;20222;-83
2021/08/22 08:29:14;;;;;;;1.20;1.10;;;26.60;99.90;;;;;;20780911;28;20339;-84
2021/08/22 08:39:19;;;;;;;3.03;1.83;;;26.80;99.90;;;;;;20781391;28;20269;-82
2021/08/22 08:49:26;;;;;;;0.60;0.60;;;26.90;99.90;;;;;;20783292;28;20202;-84
2021/08/22 08:59:33;;;;;;;1.83;1.10;;;26.80;99.90;;;;;;20758391;28;20385;-82
2021/08/22 09:10:14;;;;;;;1.92;1.50;;;27.00;99.90;;;;;;20707397;28;20198;-84
2021/08/22 09:20:51;;;;;;;1.75;1.27;;;27.30;99.90;;;;;;20708743;28;20261;-77
2021/08/22 09:31:36;;;;;;;0.85;0.77;;;27.70;99.90;;;;;;20735957;28;20225;-80
2021/08/22 09:42:31;;;;;;;2.22;1.65;;;27.80;99.90;;;;;;20784358;28;20309;-79
2021/08/22 09:53:35;;;;;;;0.47;0.47;;;28.30;99.90;;;;;;20773507;28;20202;-75
2021/08/22 10:04:11;;;;;;;9.75;1.20;;;28.30;99.90;;;;;;20775528;28;20769;-80
2021/08/22 10:14:17;;;;;;;5.20;1.10;;;28.70;99.90;;;;;;20744868;28;20230;-77
2021/08/22 10:24:48;;;;;;;1.58;1.48;;;29.00;99.90;;;;;;20743834;28;20317;-75
2021/08/22 10:35:19;;;;;;;1.90;0.55;;;29.30;99.90;;;;;;20774324;28;20233;-73
2021/08/22 10:45:43;;;;;;;1.90;1.17;;;29.60;99.90;;;;;;20767125;28;20198;-79
2021/08/22 10:55:48;;;;;;;1.48;1.20;;;29.50;99.90;;;;;;20793556;28;20252;-79
2021/08/22 11:05:52;;;;;;;2.00;1.88;;;29.90;99.90;;;;;;20695089;28;20187;-84
2021/08/22 11:15:57;;;;;;;1.20;1.10;;;30.00;99.90;;;;;;20703571;28;20233;-78
2021/08/22 11:26:03;;;;;;;2.53;1.48;;;30.30;99.90;;;;;;20702608;28;20273;-81
2021/08/22 11:36:08;;;;;;;4.28;1.17;;;31.40;99.90;;;;;;20705802;28;20617;-79
2021/08/22 11:46:16;;;;;;;1.52;1.42;;;32.00;99.90;;;;;;20705276;28;20520;-78
2021/08/22 11:56:23;;;;;;;3.50;1.35;;;31.90;99.90;;;;;;20703007;28;20253;-74
2021/08/22 12:06:39;;;;;;;1.70;1.60;;;32.70;99.90;;;;;;20777663;28;20222;-83
2021/08/22 12:16:56;;;;;;;1.65;1.45;;;33.10;99.90;;;;;;20762041;28;20221;-75
2021/08/22 12:27:01;;;;;;;1.63;1.20;;;33.40;99.90;;;;;;20780014;28;20563;-79
2021/08/22 12:37:10;;;;;;;1.67;1.33;;;33.30;99.90;;;;;;20743037;28;20229;-77
2021/08/22 12:47:14;;;;;;;1.90;1.58;;;33.30;99.90;;;;;;20799676;28;21105;-80
2021/08/22 12:57:19;;;;;;;2.08;1.00;;;34.00;99.90;;;;;;20784384;28;20264;-85
2021/08/22 13:07:22;;;;;;;1.02;0.85;;;33.50;99.90;;;;;;20699310;28;20546;-79
2021/08/22 13:17:27;;;;;;;1.55;1.42;;;34.20;99.90;;;;;;20698414;28;20230;-79
2021/08/22 13:27:31;;;;;;;4.03;2.20;;;34.10;99.90;;;;;;20708071;28;20237;-81
2021/08/22 13:37:36;;;;;;;2.00;1.55;;;34.30;99.90;;;;;;20777076;28;20324;-78
2021/08/22 13:47:39;;;;;;;6.70;1.83;;;35.00;99.90;;;;;;20778433;28;20217;-83
2021/08/22 13:57:46;;;;;;;5.25;2.50;;;35.30;99.90;;;;;;20761576;28;20360;-84
2021/08/22 14:07:50;;;;;;;2.42;2.03;;;35.00;99.90;;;;;;20776943;28;20208;-79
2021/08/22 14:17:56;;;;;;;2.08;1.90;;;35.60;99.90;;;;;;20785121;28;20580;-83
2021/08/22 14:28:03;;;;;;;2.53;1.88;;;35.70;99.90;;;;;;20796265;28;20679;-87
2021/08/22 14:38:08;;;;;;;2.72;1.73;;;35.80;99.90;;;;;;20776589;28;21020;-81
2021/08/22 14:48:12;;;;;;;2.03;1.10;;;35.90;99.90;;;;;;20791314;28;20198;-79
2021/08/22 14:58:17;;;;;;;3.42;1.85;;;35.60;99.90;;;;;;20782432;28;20496;-84
2021/08/22 15:08:24;;;;;;;3.25;1.92;;;35.90;99.90;;;;;;20707661;28;20537;-84
2021/08/22 15:18:29;;;;;;;2.78;1.95;;;35.70;99.90;;;;;;20710747;28;20309;-82
2021/08/22 15:28:35;;;;;;;1.90;1.17;;;35.70;99.90;;;;;;20726330;28;20273;-79
2021/08/22 15:38:40;;;;;;;3.60;1.70;;;35.10;99.90;;;;;;20787739;28;20218;-81
2021/08/22 15:48:43;;;;;;;2.08;1.88;;;33.20;99.90;;;;;;20789384;28;20729;-85
2021/08/22 15:58:49;;;;;;;1.73;1.60;;;31.80;99.90;;;;;;20766381;28;20693;-81
2021/08/22 16:08:53;;;;;;;4.82;1.80;;;31.00;99.90;;;;;;20767451;28;20309;-82
2021/08/22 16:18:58;;;;;;;5.10;2.10;;;30.60;99.90;;;;;;20784842;28;20225;-84
2021/08/22 16:29:04;;;;;;;3.05;2.03;;;30.10;99.90;;;;;;20772929;28;20644;-79
2021/08/22 16:39:09;;;;;;;2.75;1.50;;;29.80;99.90;;;;;;20780516;28;20312;-82
2021/08/22 16:49:16;;;;;;;1.83;1.05;;;29.70;99.90;;;;;;20783121;28;20236;-83
2021/08/22 16:59:21;;;;;;;2.72;2.15;;;29.40;99.90;;;;;;20783408;28;20221;-77
2021/08/22 17:09:26;;;;;;;3.28;1.60;;;29.20;99.90;;;;;;20766954;28;20205;-83
2021/08/22 17:19:31;;;;;;;1.50;1.33;;;29.20;99.90;;;;;;20755558;28;20221;-77
2021/08/22 17:29:37;;;;;;;2.67;2.10;;;29.50;99.90;;;;;;20766077;28;20229;-80
2021/08/22 17:39:42;;;;;;;2.60;1.60;;;29.90;99.90;;;;;;20766166;28;20232;-83
2021/08/22 17:49:46;;;;;;;3.30;2.47;;;29.70;99.90;;;;;;20784342;28;20277;-83
2021/08/22 17:59:51;;;;;;;2.15;1.38;;;28.70;99.90;;;;;;20773626;28;20256;-80
2021/08/22 18:09:55;;;;;;;4.82;2.03;;;27.90;99.90;;;;;;20711254;28;20191;-77
2021/08/22 18:20:00;;;;;;;1.23;1.13;;;27.30;99.90;;;;;;20713061;28;20655;-84
2021/08/22 18:30:05;;;;;;;2.75;1.75;;;27.20;99.90;;;;;;20738190;28;20265;-82
2021/08/22 18:40:13;;;;;;;3.25;1.55;;;27.00;99.90;;;;;;20789522;28;20248;-83
2021/08/22 18:50:17;;;;;;;10.95;1.85;;;26.70;99.90;;;;;;20792724;28;20660;-81
2021/08/22 19:00:22;;;;;;;1.80;1.70;;;26.70;99.90;;;;;;20790938;28;20226;-86
2021/08/22 19:10:30;;;;;;;1.85;1.27;;;26.60;99.90;;;;;;20775067;28;20573;-81
2021/08/22 19:20:37;;;;;;;1.45;1.25;;;26.50;99.90;;;;;;20768141;28;20230;-86
2021/08/22 19:30:40;;;;;;;1.50;1.23;;;26.40;99.90;;;;;;20771634;28;20225;-77
2021/08/22 19:40:45;;;;;;;2.25;1.25;;;26.20;99.90;;;;;;20790136;28;20232;-84
2021/08/22 19:50:49;;;;;;;1.58;0.95;;;26.20;99.90;;;;;;20751786;28;20198;-83
2021/08/22 20:00:54;;;;;;;2.15;1.38;;;26.20;99.90;;;;;;20775820;28;20736;-77
2021/08/22 20:10:58;;;;;;;0.90;0.80;;;26.10;99.90;;;;;;20716709;28;20664;-80
2021/08/22 20:21:03;;;;;;;5.30;1.02;;;26.00;99.90;;;;;;20701769;28;20230;-80
2021/08/22 20:31:08;;;;;;;3.90;3.25;;;25.90;99.90;;;;;;20720806;28;20225;-78
2021/08/22 20:41:13;;;;;;;1.55;1.45;;;25.60;99.90;;;;;;20780709;28;20225;-81
2021/08/22 20:51:18;;;;;;;2.50;1.55;;;25.30;99.90;;;;;;20761554;28;20721;-79
2021/08/22 21:01:23;;;;;;;3.38;2.03;;;24.90;99.90;;;;;;20762309;28;20510;-80
2021/08/22 21:11:28;;;;;;;1.15;1.08;;;25.00;99.90;;;;;;20776506;28;20198;-81
2021/08/22 21:21:33;;;;;;;1.48;1.17;;;24.80;99.90;;;;;;20778645;28;20237;-78
2021/08/22 21:31:37;;;;;;;1.45;1.02;;;24.60;99.90;;;;;;20775881;28;20241;-75
2021/08/22 21:41:43;;;;;;;1.52;0.85;;;24.40;99.90;;;;;;20777700;28;20749;-76
2021/08/22 21:51:46;;;;;;;1.17;1.08;;;24.40;99.90;;;;;;20755757;28;20635;-80
2021/08/22 22:01:51;;;;;;;1.52;1.15;;;24.40;99.90;;;;;;20736474;28;20232;-80
2021/08/22 22:11:56;;;;;;;1.65;1.02;;;24.30;99.90;;;;;;20693440;28;20672;-80
2021/08/22 22:22:00;;;;;;;0.75;0.75;;;24.10;99.90;;;;;;20693200;28;20233;-78
2021/08/22 22:32:04;;;;;;;1.65;1.00;;;24.30;99.90;;;;;;20738677;28;20726;-78
2021/08/22 22:42:10;;;;;;;2.13;1.15;;;24.20;99.90;;;;;;20768240;28;20361;-80
2021/08/22 22:52:13;;;;;;;0.85;0.82;;;24.20;99.90;;;;;;20791114;28;20209;-80
2021/08/22 23:02:19;;;;;;;1.15;0.95;;;24.20;99.90;;;;;;20787835;28;20229;-79
2021/08/22 23:12:23;;;;;;;2.85;1.63;;;24.00;99.90;;;;;;20786062;28;20538;-78
2021/08/22 23:22:28;;;;;;;12.95;1.65;;;24.00;99.90;;;;;;20786577;28;20218;-79
2021/08/22 23:32:32;;;;;;;3.40;1.58;;;24.10;99.90;;;;;;20785257;28;20249;-80
2021/08/22 23:42:39;;;;;;;0.80;0.80;;;23.90;99.90;;;;;;20783641;28;20229;-79
2021/08/22 23:52:42;;;;;;;1.02;0.70;;;23.70;99.90;;;;;;20785247;28;20808;-79
